sensor_id;sensor_type;location;lat;lon;timestamp;pressure;altitude;pressure_sealevel;temperature;humidity
69909;BME280;57190;47.918;8.112;2023-11-19T00:01:31;90880.19;;;7.57;98.27
69909;BME280;57190;47.918;8.112;2023-11-19T00:03:58;90889.06;;;7.45;98.19
69909;BME280;57190;47.918;8.112;2023-11-19T00:06:23;90871.53;;;7.44;98.67
69909;BME280;57190;47.918;8.112;2023-11-19T00:08:50;90875.81;;;7.45;99.07
69909;BME280;57190;47.918;8.112;2023-11-19T00:11:16;90868.72;;;7.51;98.92
69909;BME280;57190;47.918;8.112;2023-11-19T00:13:42;90869.84;;;7.55;98.92
69909;BME280;57190;47.918;8.112;2023-11-19T00:16:08;90869.31;;;7.58;98.60
69909;BME280;57190;47.918;8.112;2023-11-19T00:18:35;90861.19;;;7.65;98.74
69909;BME280;57190;47.918;8.112;2023-11-19T00:21:01;90855.38;;;7.68;98.59
69909;BME280;57190;47.918;8.112;2023-11-19T00:23:28;90867.13;;;7.77;98.64
69909;BME280;57190;47.918;8.112;2023-11-19T00:25:53;90863.19;;;7.80;98.18
69909;BME280;57190;47.918;8.112;2023-11-19T00:28:19;90887.31;;;7.78;98.86
69909;BME280;57190;47.918;8.112;2023-11-19T00:30:44;90898.03;;;7.83;98.67
69909;BME280;57190;47.918;8.112;2023-11-19T00:33:10;90873.13;;;7.90;98.57
69909;BME280;57190;47.918;8.112;2023-11-19T00:35:36;90870.94;;;7.86;98.27
69909;BME280;57190;47.918;8.112;2023-11-19T00:38:02;90891.09;;;7.82;98.97
69909;BME280;57190;47.918;8.112;2023-11-19T00:40:29;90867.75;;;7.84;98.96
69909;BME280;57190;47.918;8.112;2023-11-19T00:42:54;90875.47;;;7.86;98.63
69909;BME280;57190;47.918;8.112;2023-11-19T00:45:20;90878.63;;;7.83;98.98
69909;BME280;57190;47.918;8.112;2023-11-19T00:47:46;90884.78;;;7.89;98.80
69909;BME280;57190;47.918;8.112;2023-11-19T00:50:11;90878.91;;;7.86;99.00
69909;BME280;57190;47.918;8.112;2023-11-19T00:52:38;90877.06;;;7.87;98.83
69909;BME280;57190;47.918;8.112;2023-11-19T00:55:05;90865.63;;;7.86;99.11
69909;BME280;57190;47.918;8.112;2023-11-19T00:57:32;90861.44;;;7.91;98.50
69909;BME280;57190;47.918;8.112;2023-11-19T00:59:58;90857.22;;;7.95;99.05
69909;BME280;57190;47.918;8.112;2023-11-19T01:02:24;90845.53;;;7.96;98.65
69909;BME280;57190;47.918;8.112;2023-11-19T01:04:50;90853.22;;;7.92;99.40
69909;BME280;57190;47.918;8.112;2023-11-19T01:07:16;90835.22;;;7.99;99.55
69909;BME280;57190;47.918;8.112;2023-11-19T01:09:42;90862.06;;;8.03;99.54
69909;BME280;57190;47.918;8.112;2023-11-19T01:12:08;90861.78;;;7.99;99.64
69909;BME280;57190;47.918;8.112;2023-11-19T01:14:35;90849.31;;;8.00;99.81
69909;BME280;57190;47.918;8.112;2023-11-19T01:17:01;90841.66;;;8.03;100.00
69909;BME280;57190;47.918;8.112;2023-11-19T01:19:27;90836.38;;;8.09;99.64
69909;BME280;57190;47.918;8.112;2023-11-19T01:21:54;90826.50;;;8.04;98.85
69909;BME280;57190;47.918;8.112;2023-11-19T01:24:20;90828.94;;;8.11;99.34
69909;BME280;57190;47.918;8.112;2023-11-19T01:26:46;90831.34;;;8.12;99.33
69909;BME280;57190;47.918;8.112;2023-11-19T01:29:15;90812.56;;;8.24;98.19
69909;BME280;57190;47.918;8.112;2023-11-19T01:31:46;90819.25;;;8.27;97.82
69909;BME280;57190;47.918;8.112;2023-11-19T01:34:12;90810.75;;;8.30;97.68
69909;BME280;57190;47.918;8.112;2023-11-19T01:36:38;90808.16;;;8.35;97.50
69909;BME280;57190;47.918;8.112;2023-11-19T01:39:04;90813.97;;;8.32;97.57
69909;BME280;57190;47.918;8.112;2023-11-19T01:41:34;90809.44;;;8.32;97.50
69909;BME280;57190;47.918;8.112;2023-11-19T01:44:01;90820.59;;;8.29;97.76
69909;BME280;57190;47.918;8.112;2023-11-19T01:46:26;90826.22;;;8.33;97.92
69909;BME280;57190;47.918;8.112;2023-11-19T01:48:52;90818.75;;;8.30;98.14
69909;BME280;57190;47.918;8.112;2023-11-19T01:51:19;90828.03;;;8.27;98.24
69909;BME280;57190;47.918;8.112;2023-11-19T01:53:47;90834.94;;;8.28;98.45
69909;BME280;57190;47.918;8.112;2023-11-19T01:56:14;90821.94;;;8.32;98.31
69909;BME280;57190;47.918;8.112;2023-11-19T01:58:41;90835.72;;;8.29;98.45
69909;BME280;57190;47.918;8.112;2023-11-19T02:01:10;90840.56;;;8.32;98.99
69909;BME280;57190;47.918;8.112;2023-11-19T02:03:37;90829.63;;;8.28;98.75
69909;BME280;57190;47.918;8.112;2023-11-19T02:06:03;90834.97;;;8.33;98.54
69909;BME280;57190;47.918;8.112;2023-11-19T02:08:29;90838.69;;;8.32;98.48
69909;BME280;57190;47.918;8.112;2023-11-19T02:10:55;90824.91;;;8.36;99.12
69909;BME280;57190;47.918;8.112;2023-11-19T02:13:26;90839.25;;;8.34;98.65
69909;BME280;57190;47.918;8.112;2023-11-19T02:15:52;90832.09;;;8.35;98.50
69909;BME280;57190;47.918;8.112;2023-11-19T02:18:25;90834.19;;;8.33;98.57
69909;BME280;57190;47.918;8.112;2023-11-19T02:20:54;90837.94;;;8.37;98.42
69909;BME280;57190;47.918;8.112;2023-11-19T02:23:21;90827.84;;;8.39;98.14
69909;BME280;57190;47.918;8.112;2023-11-19T02:28:43;90823.28;;;8.34;98.50
69909;BME280;57190;47.918;8.112;2023-11-19T02:31:09;90814.81;;;8.38;99.08
69909;BME280;57190;47.918;8.112;2023-11-19T02:33:38;90801.78;;;8.36;98.85
69909;BME280;57190;47.918;8.112;2023-11-19T02:36:05;90809.50;;;8.38;98.88
69909;BME280;57190;47.918;8.112;2023-11-19T02:38:33;90811.13;;;8.39;99.05
69909;BME280;57190;47.918;8.112;2023-11-19T02:40:58;90808.75;;;8.42;98.69
69909;BME280;57190;47.918;8.112;2023-11-19T02:43:24;90809.25;;;8.39;98.07
69909;BME280;57190;47.918;8.112;2023-11-19T02:45:50;90813.25;;;8.42;98.55
69909;BME280;57190;47.918;8.112;2023-11-19T02:48:16;90816.72;;;8.42;98.59
69909;BME280;57190;47.918;8.112;2023-11-19T02:50:42;90820.47;;;8.46;98.97
69909;BME280;57190;47.918;8.112;2023-11-19T02:53:07;90818.84;;;8.45;98.65
69909;BME280;57190;47.918;8.112;2023-11-19T02:55:33;90819.13;;;8.44;98.82
69909;BME280;57190;47.918;8.112;2023-11-19T02:58:04;90832.75;;;8.53;99.35
69909;BME280;57190;47.918;8.112;2023-11-19T03:00:39;90828.53;;;8.57;99.05
69909;BME280;57190;47.918;8.112;2023-11-19T03:03:13;90829.09;;;8.59;99.44
69909;BME280;57190;47.918;8.112;2023-11-19T03:05:46;90835.50;;;8.63;100.00
69909;BME280;57190;47.918;8.112;2023-11-19T03:08:12;90841.91;;;8.67;99.26
69909;BME280;57190;47.918;8.112;2023-11-19T03:10:38;90842.19;;;8.71;99.52
69909;BME280;57190;47.918;8.112;2023-11-19T03:13:04;90841.38;;;8.70;99.63
69909;BME280;57190;47.918;8.112;2023-11-19T03:15:29;90824.38;;;8.71;99.94
69909;BME280;57190;47.918;8.112;2023-11-19T03:17:55;90821.97;;;8.70;100.00
69909;BME280;57190;47.918;8.112;2023-11-19T03:20:21;90828.38;;;8.74;99.97
69909;BME280;57190;47.918;8.112;2023-11-19T03:22:48;90819.88;;;8.72;100.00
69909;BME280;57190;47.918;8.112;2023-11-19T03:25:16;90820.09;;;8.70;100.00
69909;BME280;57190;47.918;8.112;2023-11-19T03:27:43;90820.09;;;8.70;99.68
69909;BME280;57190;47.918;8.112;2023-11-19T03:30:09;90816.94;;;8.68;100.00
69909;BME280;57190;47.918;8.112;2023-11-19T03:32:35;90819.81;;;8.67;100.00
69909;BME280;57190;47.918;8.112;2023-11-19T03:35:03;90825.66;;;8.63;99.85
69909;BME280;57190;47.918;8.112;2023-11-19T03:37:34;90823.53;;;8.65;99.48
69909;BME280;57190;47.918;8.112;2023-11-19T03:39:59;90826.75;;;8.68;99.10
69909;BME280;57190;47.918;8.112;2023-11-19T03:42:29;90841.94;;;8.72;98.90
69909;BME280;57190;47.918;8.112;2023-11-19T03:44:57;90832.63;;;8.70;98.74
69909;BME280;57190;47.918;8.112;2023-11-19T03:47:23;90856.81;;;8.68;99.33
69909;BME280;57190;47.918;8.112;2023-11-19T03:49:49;90853.88;;;8.64;99.15
69909;BME280;57190;47.918;8.112;2023-11-19T03:52:17;90845.28;;;8.57;99.75
69909;BME280;57190;47.918;8.112;2023-11-19T03:54:43;90848.56;;;8.70;99.03
69909;BME280;57190;47.918;8.112;2023-11-19T03:57:09;90841.09;;;8.67;99.02
69909;BME280;57190;47.918;8.112;2023-11-19T03:59:37;90845.06;;;8.64;98.57
69909;BME280;57190;47.918;8.112;2023-11-19T04:02:03;90852.00;;;8.65;98.79
69909;BME280;57190;47.918;8.112;2023-11-19T04:04:29;90865.25;;;8.60;99.60
69909;BME280;57190;47.918;8.112;2023-11-19T04:06:55;90829.94;;;8.64;98.68
69909;BME280;57190;47.918;8.112;2023-11-19T04:09:21;90845.06;;;8.64;98.75
69909;BME280;57190;47.918;8.112;2023-11-19T04:11:47;90853.03;;;8.64;98.21
69909;BME280;57190;47.918;8.112;2023-11-19T04:14:15;90873.28;;;8.65;97.60
69909;BME280;57190;47.918;8.112;2023-11-19T04:16:44;90865.56;;;8.63;98.02
69909;BME280;57190;47.918;8.112;2023-11-19T04:19:10;90875.09;;;8.59;98.88
69909;BME280;57190;47.918;8.112;2023-11-19T04:21:35;90866.84;;;8.61;98.18
69909;BME280;57190;47.918;8.112;2023-11-19T04:24:01;90876.41;;;8.57;98.24
69909;BME280;57190;47.918;8.112;2023-11-19T04:26:26;90863.88;;;8.57;98.81
69909;BME280;57190;47.918;8.112;2023-11-19T04:28:52;90860.72;;;8.55;98.84
69909;BME280;57190;47.918;8.112;2023-11-19T04:31:17;90863.59;;;8.54;98.96
69909;BME280;57190;47.918;8.112;2023-11-19T04:33:43;90858.06;;;8.55;99.21
69909;BME280;57190;47.918;8.112;2023-11-19T04:36:10;90852.19;;;8.53;99.14
69909;BME280;57190;47.918;8.112;2023-11-19T04:38:37;90848.69;;;8.53;99.01
69909;BME280;57190;47.918;8.112;2023-11-19T04:41:04;90861.50;;;8.56;98.46
69909;BME280;57190;47.918;8.112;2023-11-19T04:43:31;90862.84;;;8.58;98.60
69909;BME280;57190;47.918;8.112;2023-11-19T04:45:57;90849.53;;;8.53;98.95
69909;BME280;57190;47.918;8.112;2023-11-19T04:48:23;90863.59;;;8.54;98.69
69909;BME280;57190;47.918;8.112;2023-11-19T04:50:49;90860.72;;;8.55;99.04
69909;BME280;57190;47.918;8.112;2023-11-19T04:53:16;90838.13;;;8.58;99.24
69909;BME280;57190;47.918;8.112;2023-11-19T04:55:42;90849.81;;;8.57;98.28
69909;BME280;57190;47.918;8.112;2023-11-19T04:58:08;90857.78;;;8.57;98.87
69909;BME280;57190;47.918;8.112;2023-11-19T05:00:34;90856.97;;;8.56;98.85
69909;BME280;57190;47.918;8.112;2023-11-19T05:03:00;90864.16;;;8.56;98.58
69909;BME280;57190;47.918;8.112;2023-11-19T05:05:25;90879.34;;;8.60;98.13
69909;BME280;57190;47.918;8.112;2023-11-19T05:07:51;90868.72;;;8.60;98.59
69909;BME280;57190;47.918;8.112;2023-11-19T05:10:16;90876.13;;;8.58;98.56
69909;BME280;57190;47.918;8.112;2023-11-19T05:12:42;90864.19;;;8.61;98.65
69909;BME280;57190;47.918;8.112;2023-11-19T05:15:08;90861.22;;;8.57;98.97
69909;BME280;57190;47.918;8.112;2023-11-19T05:17:33;90854.63;;;8.60;98.90
69909;BME280;57190;47.918;8.112;2023-11-19T05:19:59;90854.88;;;8.58;98.89
69909;BME280;57190;47.918;8.112;2023-11-19T05:22:24;90868.69;;;8.55;99.37
69909;BME280;57190;47.918;8.112;2023-11-19T05:24:51;90849.84;;;8.62;98.87
69909;BME280;57190;47.918;8.112;2023-11-19T05:27:17;90858.88;;;8.61;98.78
69909;BME280;57190;47.918;8.112;2023-11-19T05:29:43;90862.34;;;8.61;99.15
69909;BME280;57190;47.918;8.112;2023-11-19T05:32:09;90862.91;;;8.69;99.06
69909;BME280;57190;47.918;8.112;2023-11-19T05:34:35;90871.66;;;8.64;98.92
69909;BME280;57190;47.918;8.112;2023-11-19T05:37:01;90849.34;;;8.65;99.19
69909;BME280;57190;47.918;8.112;2023-11-19T05:39:27;90861.78;;;8.59;99.26
69909;BME280;57190;47.918;8.112;2023-11-19T05:41:53;90855.69;;;8.59;99.91
69909;BME280;57190;47.918;8.112;2023-11-19T05:44:18;90855.41;;;8.60;99.69
69909;BME280;57190;47.918;8.112;2023-11-19T05:46:45;90858.34;;;8.59;99.70
69909;BME280;57190;47.918;8.112;2023-11-19T05:49:11;90857.56;;;8.63;99.54
69909;BME280;57190;47.918;8.112;2023-11-19T05:51:38;90853.53;;;8.61;100.00
69909;BME280;57190;47.918;8.112;2023-11-19T05:54:06;90846.94;;;8.63;99.47
69909;BME280;57190;47.918;8.112;2023-11-19T05:56:32;90848.28;;;8.66;99.37
69909;BME280;57190;47.918;8.112;2023-11-19T05:58:59;90848.03;;;8.68;99.10
69909;BME280;57190;47.918;8.112;2023-11-19T06:01:29;90836.06;;;8.70;98.72
69909;BME280;57190;47.918;8.112;2023-11-19T06:03:55;90847.47;;;8.65;98.80
69909;BME280;57190;47.918;8.112;2023-11-19T06:06:20;90848.00;;;8.62;99.27
69909;BME280;57190;47.918;8.112;2023-11-19T06:08:46;90859.72;;;8.67;99.10
69909;BME280;57190;47.918;8.112;2023-11-19T06:11:12;90844.84;;;8.71;98.79
69909;BME280;57190;47.918;8.112;2023-11-19T06:13:43;90864.25;;;8.66;99.14
69909;BME280;57190;47.918;8.112;2023-11-19T06:16:09;90855.22;;;8.67;99.18
69909;BME280;57190;47.918;8.112;2023-11-19T06:18:36;90853.34;;;8.68;98.96
69909;BME280;57190;47.918;8.112;2023-11-19T06:21:02;90857.88;;;8.72;98.44
69909;BME280;57190;47.918;8.112;2023-11-19T06:23:27;90854.16;;;8.68;98.87
69909;BME280;57190;47.918;8.112;2023-11-19T06:25:53;90862.16;;;8.73;99.07
69909;BME280;57190;47.918;8.112;2023-11-19T06:28:18;90850.41;;;8.69;98.20
69909;BME280;57190;47.918;8.112;2023-11-19T06:30:44;90866.63;;;8.68;98.92
69909;BME280;57190;47.918;8.112;2023-11-19T06:33:13;90855.22;;;8.67;99.02
69909;BME280;57190;47.918;8.112;2023-11-19T06:35:38;90858.66;;;8.68;98.86
69909;BME280;57190;47.918;8.112;2023-11-19T06:38:13;90850.47;;;8.74;98.72
69909;BME280;57190;47.918;8.112;2023-11-19T06:40:39;90857.63;;;8.74;98.25
69909;BME280;57190;47.918;8.112;2023-11-19T06:43:06;90860.84;;;8.76;97.72
69909;BME280;57190;47.918;8.112;2023-11-19T06:45:34;90846.47;;;8.72;98.00
69909;BME280;57190;47.918;8.112;2023-11-19T06:48:02;90825.47;;;8.75;97.93
69909;BME280;57190;47.918;8.112;2023-11-19T06:50:34;90847.28;;;8.77;97.06
69909;BME280;57190;47.918;8.112;2023-11-19T06:52:59;90852.09;;;8.80;96.92
69909;BME280;57190;47.918;8.112;2023-11-19T06:55:26;90852.34;;;8.79;97.37
69909;BME280;57190;47.918;8.112;2023-11-19T06:57:52;90849.69;;;8.79;97.74
69909;BME280;57190;47.918;8.112;2023-11-19T07:00:17;90845.44;;;8.78;97.82
69909;BME280;57190;47.918;8.112;2023-11-19T07:02:44;90848.38;;;8.81;96.87
69909;BME280;57190;47.918;8.112;2023-11-19T07:05:09;90844.13;;;8.86;96.53
69909;BME280;57190;47.918;8.112;2023-11-19T07:07:35;90865.19;;;8.87;96.94
69909;BME280;57190;47.918;8.112;2023-11-19T07:10:01;90854.00;;;8.90;96.61
69909;BME280;57190;47.918;8.112;2023-11-19T07:12:27;90851.88;;;8.87;96.96
69909;BME280;57190;47.918;8.112;2023-11-19T07:14:53;90857.47;;;8.91;96.64
69909;BME280;57190;47.918;8.112;2023-11-19T07:17:20;90860.69;;;8.93;96.79
69909;BME280;57190;47.918;8.112;2023-11-19T07:19:46;90858.81;;;8.93;97.09
69909;BME280;57190;47.918;8.112;2023-11-19T07:22:12;90860.72;;;8.98;96.16
69909;BME280;57190;47.918;8.112;2023-11-19T07:24:41;90868.72;;;9.03;95.78
69909;BME280;57190;47.918;8.112;2023-11-19T07:27:07;90874.09;;;9.08;95.65
69909;BME280;57190;47.918;8.112;2023-11-19T07:29:34;90873.03;;;9.09;95.04
69909;BME280;57190;47.918;8.112;2023-11-19T07:32:00;90870.09;;;9.11;95.04
69909;BME280;57190;47.918;8.112;2023-11-19T07:34:27;90879.16;;;9.15;95.13
69909;BME280;57190;47.918;8.112;2023-11-19T07:36:52;90878.38;;;9.15;95.04
69909;BME280;57190;47.918;8.112;2023-11-19T07:39:19;90874.16;;;9.19;94.86
69909;BME280;57190;47.918;8.112;2023-11-19T07:41:45;90875.78;;;9.30;94.83
69909;BME280;57190;47.918;8.112;2023-11-19T07:44:11;90883.81;;;9.35;94.63
69909;BME280;57190;47.918;8.112;2023-11-19T07:46:37;90875.06;;;9.50;93.33
69909;BME280;57190;47.918;8.112;2023-11-19T07:49:02;90881.19;;;9.46;93.16
69909;BME280;57190;47.918;8.112;2023-11-19T07:51:28;90896.09;;;9.47;92.84
69909;BME280;57190;47.918;8.112;2023-11-19T07:53:53;90890.25;;;9.50;93.00
69909;BME280;57190;47.918;8.112;2023-11-19T07:56:19;90903.03;;;9.48;92.95
69909;BME280;57190;47.918;8.112;2023-11-19T07:58:44;90891.09;;;9.55;92.07
69909;BME280;57190;47.918;8.112;2023-11-19T08:01:10;90893.78;;;9.66;91.79
69909;BME280;57190;47.918;8.112;2023-11-19T08:03:36;90904.41;;;9.60;91.56
69909;BME280;57190;47.918;8.112;2023-11-19T08:06:03;90912.47;;;9.71;91.43
69909;BME280;57190;47.918;8.112;2023-11-19T08:08:28;90898.97;;;9.93;90.14
69909;BME280;57190;47.918;8.112;2023-11-19T08:10:58;90902.78;;;10.28;88.07
69909;BME280;57190;47.918;8.112;2023-11-19T08:13:24;90901.00;;;10.91;85.59
69909;BME280;57190;47.918;8.112;2023-11-19T08:15:50;90891.75;;;11.64;82.62
69909;BME280;57190;47.918;8.112;2023-11-19T08:18:16;90886.56;;;11.93;79.20
69909;BME280;57190;47.918;8.112;2023-11-19T08:20:43;90910.09;;;12.02;79.69
69909;BME280;57190;47.918;8.112;2023-11-19T08:23:10;90907.25;;;11.62;78.37
69909;BME280;57190;47.918;8.112;2023-11-19T08:25:35;90906.28;;;11.11;81.58
69909;BME280;57190;47.918;8.112;2023-11-19T08:28:01;90899.66;;;10.83;81.96
69909;BME280;57190;47.918;8.112;2023-11-19T08:30:29;90907.91;;;10.76;81.78
69909;BME280;57190;47.918;8.112;2023-11-19T08:32:55;90915.91;;;10.76;81.23
69909;BME280;57190;47.918;8.112;2023-11-19T08:35:21;90916.72;;;10.61;82.50
69909;BME280;57190;47.918;8.112;2023-11-19T08:37:47;90911.13;;;10.63;82.73
69909;BME280;57190;47.918;8.112;2023-11-19T08:40:12;90918.31;;;10.57;83.33
69909;BME280;57190;47.918;8.112;2023-11-19T08:42:40;90919.38;;;10.51;83.13
69909;BME280;57190;47.918;8.112;2023-11-19T08:45:07;90924.69;;;10.56;83.11
69909;BME280;57190;47.918;8.112;2023-11-19T08:47:36;90912.69;;;10.53;82.93
69909;BME280;57190;47.918;8.112;2023-11-19T08:50:01;90929.22;;;10.50;83.56
69909;BME280;57190;47.918;8.112;2023-11-19T08:52:28;90935.91;;;10.63;82.64
69909;BME280;57190;47.918;8.112;2023-11-19T08:54:53;90933.00;;;10.85;83.15
69909;BME280;57190;47.918;8.112;2023-11-19T08:57:19;90932.44;;;11.20;81.28
69909;BME280;57190;47.918;8.112;2023-11-19T08:59:44;90918.41;;;12.00;77.66
69909;BME280;57190;47.918;8.112;2023-11-19T09:02:11;90927.97;;;13.60;72.26
69909;BME280;57190;47.918;8.112;2023-11-19T09:04:36;90929.44;;;14.44;69.74
69909;BME280;57190;47.918;8.112;2023-11-19T09:07:02;90932.88;;;15.07;68.62
69909;BME280;57190;47.918;8.112;2023-11-19T09:09:28;90925.06;;;16.05;64.01
69909;BME280;57190;47.918;8.112;2023-11-19T09:11:54;90939.41;;;16.00;63.35
69909;BME280;57190;47.918;8.112;2023-11-19T09:14:20;90931.16;;;14.98;66.37
69909;BME280;57190;47.918;8.112;2023-11-19T09:16:51;90936.28;;;14.12;68.03
69909;BME280;57190;47.918;8.112;2023-11-19T09:19:16;90934.69;;;13.63;70.25
69909;BME280;57190;47.918;8.112;2023-11-19T09:21:43;90938.94;;;13.34;71.47
69909;BME280;57190;47.918;8.112;2023-11-19T09:24:08;90936.31;;;12.95;71.32
69909;BME280;57190;47.918;8.112;2023-11-19T09:26:34;90940.53;;;13.01;70.95
69909;BME280;57190;47.918;8.112;2023-11-19T09:29:01;90951.94;;;12.77;71.25
69909;BME280;57190;47.918;8.112;2023-11-19T09:31:27;90945.19;;;12.45;72.17
69909;BME280;57190;47.918;8.112;2023-11-19T09:33:52;90956.13;;;12.49;73.16
69909;BME280;57190;47.918;8.112;2023-11-19T09:36:18;90954.75;;;12.56;72.94
69909;BME280;57190;47.918;8.112;2023-11-19T09:38:44;90947.38;;;12.83;72.92
69909;BME280;57190;47.918;8.112;2023-11-19T09:41:10;90940.16;;;12.78;72.83
69909;BME280;57190;47.918;8.112;2023-11-19T09:43:42;90947.59;;;12.86;72.32
69909;BME280;57190;47.918;8.112;2023-11-19T09:46:09;90943.50;;;12.60;72.58
69909;BME280;57190;47.918;8.112;2023-11-19T09:48:39;90947.03;;;12.45;73.73
69909;BME280;57190;47.918;8.112;2023-11-19T09:51:11;90939.22;;;12.03;73.51
69909;BME280;57190;47.918;8.112;2023-11-19T09:53:37;90943.28;;;11.75;74.37
69909;BME280;57190;47.918;8.112;2023-11-19T09:56:06;90951.91;;;11.51;75.64
69909;BME280;57190;47.918;8.112;2023-11-19T09:58:35;90948.75;;;11.28;76.78
69909;BME280;57190;47.918;8.112;2023-11-19T10:01:01;90958.06;;;11.00;78.53
69909;BME280;57190;47.918;8.112;2023-11-19T10:03:33;90961.28;;;10.87;79.47
69909;BME280;57190;47.918;8.112;2023-11-19T10:06:00;90953.81;;;10.89;80.17
69909;BME280;57190;47.918;8.112;2023-11-19T10:08:26;90953.28;;;10.87;81.31
69909;BME280;57190;47.918;8.112;2023-11-19T10:10:52;90947.66;;;10.88;81.92
69909;BME280;57190;47.918;8.112;2023-11-19T10:13:18;90946.34;;;11.01;81.26
69909;BME280;57190;47.918;8.112;2023-11-19T10:15:44;90941.28;;;11.10;81.55
69909;BME280;57190;47.918;8.112;2023-11-19T10:18:10;90947.13;;;11.22;81.36
69909;BME280;57190;47.918;8.112;2023-11-19T10:20:41;90948.47;;;11.20;81.55
69909;BME280;57190;47.918;8.112;2023-11-19T10:23:07;90942.88;;;11.16;80.73
69909;BME280;57190;47.918;8.112;2023-11-19T10:25:33;90947.94;;;11.28;80.34
69909;BME280;57190;47.918;8.112;2023-11-19T10:27:59;90940.72;;;11.44;80.00
69909;BME280;57190;47.918;8.112;2023-11-19T10:30:29;90935.59;;;11.58;78.43
69909;BME280;57190;47.918;8.112;2023-11-19T10:33:07;90927.28;;;11.70;78.27
69909;BME280;57190;47.918;8.112;2023-11-19T10:35:51;90940.31;;;11.92;77.11
69909;BME280;57190;47.918;8.112;2023-11-19T10:38:18;90937.28;;;12.14;77.05
69909;BME280;57190;47.918;8.112;2023-11-19T10:40:44;90928.50;;;12.14;76.88
69909;BME280;57190;47.918;8.112;2023-11-19T10:43:10;90925.59;;;11.89;76.35
69909;BME280;57190;47.918;8.112;2023-11-19T10:45:36;90928.34;;;11.79;76.43
69909;BME280;57190;47.918;8.112;2023-11-19T10:48:03;90923.53;;;11.76;76.64
69909;BME280;57190;47.918;8.112;2023-11-19T10:50:36;90916.09;;;11.62;77.32
69909;BME280;57190;47.918;8.112;2023-11-19T10:53:03;90925.72;;;11.58;77.23
69909;BME280;57190;47.918;8.112;2023-11-19T10:55:30;90921.69;;;11.66;76.63
69909;BME280;57190;47.918;8.112;2023-11-19T10:58:01;90913.06;;;11.85;76.70
69909;BME280;57190;47.918;8.112;2023-11-19T11:00:32;90907.97;;;11.99;74.46
69909;BME280;57190;47.918;8.112;2023-11-19T11:03:08;90907.69;;;11.95;75.38
69909;BME280;57190;47.918;8.112;2023-11-19T11:05:36;90904.78;;;11.81;73.91
69909;BME280;57190;47.918;8.112;2023-11-19T11:08:05;90903.47;;;11.78;74.37
69909;BME280;57190;47.918;8.112;2023-11-19T11:10:32;90899.44;;;11.81;74.14
69909;BME280;57190;47.918;8.112;2023-11-19T11:13:03;90909.84;;;11.98;74.75
69909;BME280;57190;47.918;8.112;2023-11-19T11:15:30;90911.75;;;11.82;75.07
69909;BME280;57190;47.918;8.112;2023-11-19T11:17:59;90909.91;;;11.67;75.62
69909;BME280;57190;47.918;8.112;2023-11-19T11:20:28;90886.16;;;11.66;75.72
69909;BME280;57190;47.918;8.112;2023-11-19T11:28:46;90894.88;;;11.97;73.18
69909;BME280;57190;47.918;8.112;2023-11-19T11:39:34;90895.22;;;11.64;74.42
69909;BME280;57190;47.918;8.112;2023-11-19T11:50:28;90875.38;;;11.86;73.41
69909;BME280;57190;47.918;8.112;2023-11-19T11:55:33;90879.44;;;11.73;73.52
69909;BME280;57190;47.918;8.112;2023-11-19T11:58:00;90879.19;;;11.70;73.61
69909;BME280;57190;47.918;8.112;2023-11-19T12:00:31;90880.22;;;11.74;73.90
69909;BME280;57190;47.918;8.112;2023-11-19T12:03:01;90888.56;;;11.62;73.86
69909;BME280;57190;47.918;8.112;2023-11-19T12:05:27;90891.50;;;11.55;74.89
69909;BME280;57190;47.918;8.112;2023-11-19T12:10:24;90883.00;;;11.53;75.05
69909;BME280;57190;47.918;8.112;2023-11-19T12:12:52;90885.19;;;11.36;75.45
69909;BME280;57190;47.918;8.112;2023-11-19T12:15:18;90877.16;;;11.30;75.71
69909;BME280;57190;47.918;8.112;2023-11-19T12:17:51;90891.88;;;11.17;76.54
69909;BME280;57190;47.918;8.112;2023-11-19T12:20:18;90900.69;;;11.08;76.80
69909;BME280;57190;47.918;8.112;2023-11-19T12:22:45;90889.75;;;11.09;76.81
69909;BME280;57190;47.918;8.112;2023-11-19T12:25:12;90895.34;;;11.08;77.30
69909;BME280;57190;47.918;8.112;2023-11-19T12:27:42;90894.28;;;11.09;77.61
69909;BME280;57190;47.918;8.112;2023-11-19T12:30:09;90890.31;;;11.06;77.65
69909;BME280;57190;47.918;8.112;2023-11-19T12:32:42;90896.44;;;11.01;78.04
69909;BME280;57190;47.918;8.112;2023-11-19T12:35:08;90894.56;;;11.02;77.75
69909;BME280;57190;47.918;8.112;2023-11-19T12:37:46;90890.31;;;10.96;77.79
69909;BME280;57190;47.918;8.112;2023-11-19T12:40:20;90871.34;;;10.92;78.12
69909;BME280;57190;47.918;8.112;2023-11-19T12:42:50;90875.09;;;10.91;77.97
69909;BME280;57190;47.918;8.112;2023-11-19T12:45:17;90876.69;;;10.87;78.27
69909;BME280;57190;47.918;8.112;2023-11-19T12:47:44;90862.81;;;10.95;78.42
69909;BME280;57190;47.918;8.112;2023-11-19T12:50:13;90864.94;;;10.98;78.11
69909;BME280;57190;47.918;8.112;2023-11-19T12:52:39;90866.00;;;11.08;77.53
69909;BME280;57190;47.918;8.112;2023-11-19T12:55:05;90875.88;;;11.02;78.17
69909;BME280;57190;47.918;8.112;2023-11-19T12:57:49;90874.00;;;10.97;78.70
69909;BME280;57190;47.918;8.112;2023-11-19T13:00:20;90883.88;;;11.02;78.57
69909;BME280;57190;47.918;8.112;2023-11-19T13:02:53;90871.06;;;11.09;78.94
69909;BME280;57190;47.918;8.112;2023-11-19T13:05:29;90868.69;;;11.03;78.29
69909;BME280;57190;47.918;8.112;2023-11-19T13:10:28;90862.56;;;10.81;78.53
69909;BME280;57190;47.918;8.112;2023-11-19T13:15:27;90858.03;;;10.61;78.85
69909;BME280;57190;47.918;8.112;2023-11-19T13:17:52;90871.09;;;10.63;79.22
69909;BME280;57190;47.918;8.112;2023-11-19T13:20:18;90869.50;;;10.67;79.10
69909;BME280;57190;47.918;8.112;2023-11-19T13:23:00;90876.44;;;10.73;77.72
69909;BME280;57190;47.918;8.112;2023-11-19T13:25:27;90875.91;;;10.71;77.51
69909;BME280;57190;47.918;8.112;2023-11-19T13:27:53;90878.84;;;10.59;77.83
69909;BME280;57190;47.918;8.112;2023-11-19T13:30:19;90880.72;;;10.48;77.97
69909;BME280;57190;47.918;8.112;2023-11-19T13:32:45;90872.69;;;10.38;77.94
69909;BME280;57190;47.918;8.112;2023-11-19T13:35:15;90871.28;;;10.20;78.13
69909;BME280;57190;47.918;8.112;2023-11-19T13:37:41;90867.84;;;10.14;77.43
69909;BME280;57190;47.918;8.112;2023-11-19T13:40:07;90862.75;;;10.02;78.23
69909;BME280;57190;47.918;8.112;2023-11-19T13:42:36;90861.66;;;9.93;78.88